Time;durP1;ratioP1;P1;durP2;ratioP2;P2;SDS_P1;SDS_P2;PMS_P1;PMS_P2;Temp;Humidity;BMP_temperature;BMP_pressure;BME280_temperature;BME280_humidity;BME280_pressure;Samples;Min_cycle;Max_cycle;Signal;HPM_P1;HPM_P2
2022/08/16 00:00:51;;;;;;;11.88;6.78;;;;;;;20.25;66.11;100494.56;4999118;28;20025;-80
2022/08/16 00:03:17;;;;;;;10.10;6.57;;;;;;;20.24;66.85;100490.16;5031864;28;20088;-80
2022/08/16 00:05:43;;;;;;;11.95;6.88;;;;;;;20.23;66.52;100494.69;5031658;28;20385;-80
2022/08/16 00:08:10;;;;;;;11.43;7.28;;;;;;;20.18;65.60;100488.75;5005043;28;20076;-79
2022/08/16 00:10:35;;;;;;;16.50;7.18;;;;;;;20.13;66.38;100493.59;5026221;28;20038;-79
2022/08/16 00:13:04;;;;;;;8.40;6.85;;;;;;;20.05;66.19;100491.38;5015086;28;20048;-80
2022/08/16 00:15:36;;;;;;;11.23;7.20;;;;;;;19.98;66.41;100493.66;5031657;28;20064;-80
2022/08/16 00:18:03;;;;;;;11.02;6.80;;;;;;;19.95;67.07;100492.97;5020181;28;20452;-80
2022/08/16 00:20:30;;;;;;;11.38;7.30;;;;;;;19.92;67.43;100491.34;5030984;28;20076;-80
2022/08/16 00:22:56;;;;;;;10.10;7.47;;;;;;;19.89;68.09;100496.09;5032663;28;20096;-79
2022/08/16 00:25:23;;;;;;;11.38;6.95;;;;;;;19.86;67.60;100489.09;5032955;28;20532;-80
2022/08/16 00:27:49;;;;;;;9.60;7.82;;;;;;;19.84;68.70;100496.38;5032444;28;20041;-80
2022/08/16 00:30:16;;;;;;;12.98;7.35;;;;;;;19.84;67.43;100499.06;5031324;28;20077;-81
2022/08/16 00:32:46;;;;;;;11.90;7.22;;;;;;;19.85;67.88;100503.47;5031129;28;20107;-80
2022/08/16 00:35:17;;;;;;;10.70;7.15;;;;;;;19.85;67.99;100508.84;5031280;28;20025;-80
2022/08/16 00:37:44;;;;;;;16.63;6.90;;;;;;;19.76;67.83;100506.78;5031140;28;20040;-80
2022/08/16 00:40:14;;;;;;;13.60;7.30;;;;;;;19.79;68.39;100511.94;5031287;28;20035;-80
2022/08/16 00:42:41;;;;;;;11.05;6.75;;;;;;;19.81;68.63;100510.03;5032539;28;20076;-79
2022/08/16 00:45:09;;;;;;;10.55;7.40;;;;;;;19.80;68.37;100510.13;5011343;28;20041;-80
2022/08/16 00:47:42;;;;;;;8.60;6.82;;;;;;;19.69;67.31;100517.06;5022111;28;20049;-80
2022/08/16 00:50:08;;;;;;;10.48;7.32;;;;;;;19.67;67.71;100508.22;5031144;28;20041;-80
2022/08/16 00:52:33;;;;;;;11.90;7.82;;;;;;;19.61;68.13;100513.97;5031137;28;20026;-80
2022/08/16 00:54:59;;;;;;;10.65;7.75;;;;;;;19.53;68.95;100510.91;5014688;28;20127;-80
2022/08/16 00:57:26;;;;;;;15.77;8.25;;;;;;;19.45;69.54;100513.22;5027261;28;20172;-79
2022/08/16 00:59:51;;;;;;;10.43;8.40;;;;;;;19.42;69.29;100519.66;5030829;28;20038;-80
2022/08/16 01:02:17;;;;;;;10.57;8.48;;;;;;;19.39;69.58;100519.00;4997713;28;20049;-79
2022/08/16 01:04:43;;;;;;;11.73;8.60;;;;;;;19.37;68.96;100521.78;5030958;28;20433;-79
2022/08/16 01:07:08;;;;;;;14.57;8.20;;;;;;;19.36;68.93;100524.56;5031027;28;20456;-80
2022/08/16 01:09:37;;;;;;;12.32;8.00;;;;;;;19.30;69.62;100517.75;5030673;28;20029;-79
2022/08/16 01:12:06;;;;;;;11.05;8.07;;;;;;;19.25;70.19;100517.19;5030907;28;20408;-80
2022/08/16 01:14:38;;;;;;;11.50;8.50;;;;;;;19.22;70.14;100514.72;5030419;28;20065;-80
2022/08/16 01:17:04;;;;;;;16.58;8.32;;;;;;;19.17;69.54;100515.00;5030888;28;20040;-80
2022/08/16 01:19:34;;;;;;;11.50;7.88;;;;;;;19.19;69.48;100515.75;5030632;28;20396;-80
2022/08/16 01:22:20;;;;;;;12.57;9.02;;;;;;;19.16;69.94;100512.41;5014690;28;20033;-80
2022/08/16 01:24:50;;;;;;;14.18;9.93;;;;;;;19.11;71.47;100523.41;5014201;28;20025;-79
2022/08/16 01:27:24;;;;;;;18.73;9.73;;;;;;;19.13;71.52;100530.41;5030927;28;20026;-79
2022/08/16 01:30:16;;;;;;;11.38;9.48;;;;;;;19.08;71.74;100519.09;5014282;28;20116;-79
2022/08/16 01:32:42;;;;;;;13.52;9.93;;;;;;;19.05;71.83;100519.31;5031537;28;20132;-80
2022/08/16 01:35:14;;;;;;;12.48;9.48;;;;;;;19.00;70.72;100520.56;5030483;28;20045;-80
2022/08/16 01:37:43;;;;;;;12.93;9.50;;;;;;;18.97;72.42;100523.44;5031774;28;20130;-79
2022/08/16 01:40:12;;;;;;;14.27;9.98;;;;;;;19.00;71.66;100515.19;5014693;28;20425;-80
2022/08/16 01:42:39;;;;;;;16.80;9.80;;;;;;;18.97;70.83;100510.88;5030505;28;20037;-79
2022/08/16 01:45:05;;;;;;;14.20;9.98;;;;;;;18.93;70.61;100509.31;5030320;28;20025;-79
2022/08/16 01:47:33;;;;;;;12.65;9.75;;;;;;;18.87;71.20;100515.09;5010862;28;20354;-79
2022/08/16 01:49:59;;;;;;;12.73;10.07;;;;;;;18.83;73.04;100514.41;4992939;28;20489;-79
2022/08/16 01:52:24;;;;;;;11.63;9.57;;;;;;;18.83;72.91;100521.59;5030787;28;20060;-79
2022/08/16 01:54:59;;;;;;;12.85;9.98;;;;;;;18.75;72.62;100516.66;5014999;28;20397;-79
2022/08/16 01:57:27;;;;;;;14.65;10.65;;;;;;;18.74;71.99;100520.28;5030551;28;20037;-79
2022/08/16 01:59:53;;;;;;;12.27;9.63;;;;;;;18.74;72.70;100517.59;5033705;28;20037;-79
2022/08/16 02:02:18;;;;;;;13.38;10.98;;;;;;;18.73;72.91;100513.22;5035202;28;20029;-80
2022/08/16 02:04:44;;;;;;;16.13;10.80;;;;;;;18.68;73.16;100516.16;4998130;28;20069;-80
2022/08/16 02:07:11;;;;;;;15.32;10.45;;;;;;;18.66;74.19;100518.06;5030578;28;20033;-79
2022/08/16 02:09:39;;;;;;;15.15;11.68;;;;;;;18.64;74.73;100519.13;5041928;28;20060;-79
2022/08/16 02:12:07;;;;;;;13.60;10.73;;;;;;;18.56;74.59;100513.38;5039703;28;20030;-79
2022/08/16 02:14:38;;;;;;;15.40;11.38;;;;;;;18.61;75.53;100516.63;5017742;28;20091;-80
2022/08/16 02:17:07;;;;;;;13.63;11.25;;;;;;;18.61;73.43;100513.94;5035162;28;20385;-80
2022/08/16 02:19:36;;;;;;;12.43;10.90;;;;;;;18.59;74.31;100506.00;5033603;28;20049;-79
2022/08/16 02:22:03;;;;;;;16.73;11.07;;;;;;;18.63;73.48;100520.09;5033985;28;20037;-79
2022/08/16 02:24:29;;;;;;;14.55;11.18;;;;;;;18.66;73.40;100509.16;5034951;28;20318;-79
2022/08/16 02:26:55;;;;;;;14.02;10.77;;;;;;;18.69;73.83;100517.03;5001013;28;20091;-79
2022/08/16 02:29:22;;;;;;;12.95;10.60;;;;;;;18.62;73.95;100510.31;5033395;28;20075;-79
2022/08/16 02:31:49;;;;;;;11.05;9.95;;;;;;;18.57;73.56;100512.41;5033497;28;20053;-79
2022/08/16 02:34:17;;;;;;;12.48;10.98;;;;;;;18.51;73.74;100502.91;5033161;28;20584;-79
2022/08/16 02:36:43;;;;;;;16.45;10.27;;;;;;;18.45;73.68;100514.03;5034874;28;20543;-80
2022/08/16 02:39:11;;;;;;;14.75;11.80;;;;;;;18.42;75.64;100514.19;5016654;28;20029;-80
2022/08/16 02:41:38;;;;;;;14.20;11.70;;;;;;;18.39;75.52;100514.38;5033325;28;20040;-79
2022/08/16 02:44:05;;;;;;;16.55;11.45;;;;;;;18.34;74.54;100516.47;5033362;28;20037;-79
2022/08/16 02:46:32;;;;;;;18.80;12.43;;;;;;;18.30;75.65;100521.16;5033397;28;20025;-79
2022/08/16 02:48:59;;;;;;;18.30;11.32;;;;;;;18.26;76.20;100520.47;5016748;28;20090;-79
2022/08/16 02:51:26;;;;;;;18.25;11.93;;;;;;;18.24;74.92;100517.00;5017100;28;20491;-79
2022/08/16 02:53:51;;;;;;;15.48;11.30;;;;;;;18.21;76.04;100517.19;5032970;28;20164;-79
2022/08/16 02:56:17;;;;;;;16.25;11.75;;;;;;;18.15;76.41;100514.88;5031988;28;20501;-79
2022/08/16 02:58:45;;;;;;;20.27;12.80;;;;;;;18.13;77.50;100510.56;5019067;28;20033;-79
2022/08/16 03:01:14;;;;;;;14.45;12.65;;;;;;;18.09;77.67;100509.88;5033219;28;20052;-79
2022/08/16 03:03:40;;;;;;;18.50;12.75;;;;;;;18.08;77.24;100515.34;5032608;28;20116;-79
2022/08/16 03:06:05;;;;;;;21.05;12.50;;;;;;;18.03;77.89;100511.09;5016551;28;20120;-79
2022/08/16 03:08:31;;;;;;;14.65;11.48;;;;;;;18.01;76.65;100507.66;5045649;28;20334;-78
2022/08/16 03:10:57;;;;;;;17.05;11.85;;;;;;;18.03;76.56;100510.25;5017557;28;20034;-79
2022/08/16 03:13:23;;;;;;;18.67;11.68;;;;;;;17.98;76.77;100499.78;5016155;28;20044;-79
2022/08/16 03:15:49;;;;;;;15.23;11.98;;;;;;;18.00;77.29;100497.00;5032612;28;20048;-78
2022/08/16 03:18:15;;;;;;;16.83;12.13;;;;;;;17.98;77.21;100497.13;5032360;28;20148;-79
2022/08/16 03:20:41;;;;;;;22.90;12.65;;;;;;;17.93;77.62;100496.53;5016536;28;20408;-78
2022/08/16 03:23:10;;;;;;;16.35;13.52;;;;;;;17.93;77.67;100503.69;5032261;28;20034;-79
2022/08/16 03:25:36;;;;;;;15.90;11.82;;;;;;;17.91;77.38;100502.91;5016426;28;20030;-88
2022/08/16 03:28:04;;;;;;;21.45;12.90;;;;;;;17.89;77.59;100497.63;5038372;28;20100;-88
2022/08/16 03:30:31;;;;;;;18.13;12.50;;;;;;;17.86;76.91;100497.81;5041259;28;20553;-89
2022/08/16 03:33:01;;;;;;;16.25;12.55;;;;;;;17.82;78.11;100490.91;5051053;28;20452;-89
2022/08/16 03:35:35;;;;;;;23.10;13.13;;;;;;;17.82;78.53;100502.47;5052784;28;20036;-88
2022/08/16 03:38:12;;;;;;;15.23;13.27;;;;;;;17.79;79.07;100505.31;5052597;28;20552;-88
2022/08/16 03:40:45;;;;;;;15.65;13.07;;;;;;;17.76;79.34;100510.84;5040610;28;20121;-88
2022/08/16 03:43:12;;;;;;;16.85;13.00;;;;;;;17.75;78.40;100514.44;5050821;28;20029;-88
2022/08/16 03:45:39;;;;;;;17.10;13.35;;;;;;;17.73;78.66;100513.69;5026075;28;20124;-89
2022/08/16 03:48:06;;;;;;;16.88;12.63;;;;;;;17.72;78.22;100509.28;5049252;28;20531;-89
2022/08/16 03:50:34;;;;;;;15.68;12.48;;;;;;;17.73;78.79;100520.84;5052541;28;20037;-90
2022/08/16 03:53:00;;;;;;;20.30;12.82;;;;;;;17.71;78.84;100523.63;5005874;28;20132;-88
2022/08/16 03:55:27;;;;;;;18.05;13.15;;;;;;;17.72;78.21;100525.34;5052522;28;20033;-89
2022/08/16 03:57:52;;;;;;;18.50;13.30;;;;;;;17.68;78.77;100523.81;5019395;28;20036;-89
2022/08/16 04:00:25;;;;;;;18.65;12.70;;;;;;;17.66;78.99;100530.22;5022190;28;20040;-89
2022/08/16 04:02:54;;;;;;;19.98;13.10;;;;;;;17.63;79.17;100526.75;5052290;28;20124;-90
2022/08/16 04:05:19;;;;;;;15.35;12.77;;;;;;;17.65;79.61;100532.00;5051527;28;20473;-89
2022/08/16 04:07:45;;;;;;;16.92;12.02;;;;;;;17.62;77.36;100526.81;5038680;28;20036;-89
2022/08/16 04:10:13;;;;;;;18.83;12.52;;;;;;;17.59;78.14;100529.69;5040165;28;20037;-89
2022/08/16 04:12:40;;;;;;;17.55;12.73;;;;;;;17.60;79.66;100531.41;5046271;28;20119;-89
2022/08/16 04:15:09;;;;;;;18.08;12.35;;;;;;;17.62;79.50;100535.72;5032124;28;20504;-89
2022/08/16 04:17:40;;;;;;;17.33;13.50;;;;;;;17.63;79.54;100544.63;5032103;28;20172;-89
2022/08/16 04:20:09;;;;;;;17.05;13.23;;;;;;;17.60;78.10;100542.97;5042440;28;20062;-89
2022/08/16 04:22:36;;;;;;;16.75;12.57;;;;;;;17.62;78.89;100542.88;5034847;28;20029;-90
2022/08/16 04:25:05;;;;;;;17.15;12.88;;;;;;;17.62;77.57;100543.75;5031785;28;20083;-89
2022/08/16 04:27:34;;;;;;;16.63;13.15;;;;;;;17.58;78.92;100542.22;5033022;28;20033;-89
2022/08/16 04:30:02;;;;;;;21.55;12.52;;;;;;;17.59;77.87;100543.06;5024287;28;20026;-89
2022/08/16 04:32:28;;;;;;;22.33;12.88;;;;;;;17.61;79.02;100546.53;5015405;28;20049;-88
2022/08/16 04:34:54;;;;;;;16.80;12.88;;;;;;;17.59;78.45;100541.25;5038922;28;20038;-89
2022/08/16 04:37:20;;;;;;;18.70;13.23;;;;;;;17.59;78.56;100551.97;5023686;28;20167;-89
2022/08/16 04:39:52;;;;;;;19.33;14.27;;;;;;;17.63;79.17;100545.50;5016209;28;20065;-89
2022/08/16 04:42:18;;;;;;;19.23;14.10;;;;;;;17.57;79.03;100539.59;4994096;28;20033;-89
2022/08/16 04:44:45;;;;;;;21.30;14.68;;;;;;;17.61;79.47;100551.88;5020310;28;20082;-89
2022/08/16 04:47:12;;;;;;;19.45;13.95;;;;;;;17.62;79.52;100546.41;5052552;28;20033;-88
2022/08/16 04:49:37;;;;;;;18.60;13.82;;;;;;;17.60;78.57;100544.78;5017715;28;20044;-88
2022/08/16 04:52:04;;;;;;;20.88;14.98;;;;;;;17.63;80.37;100555.34;5022509;28;20037;-88
2022/08/16 04:54:30;;;;;;;21.23;14.85;;;;;;;17.63;80.44;100558.03;5035557;28;20090;-89
2022/08/16 04:56:56;;;;;;;20.92;14.40;;;;;;;17.56;80.13;100543.25;5032301;28;20077;-88
2022/08/16 04:59:22;;;;;;;17.95;15.13;;;;;;;17.57;79.93;100556.53;5015333;28;20139;-89
2022/08/16 05:01:48;;;;;;;21.92;15.13;;;;;;;17.63;80.53;100564.22;5018357;28;20033;-89
2022/08/16 05:04:14;;;;;;;20.10;15.52;;;;;;;17.65;79.99;100556.09;5025887;28;20041;-88
2022/08/16 05:06:42;;;;;;;19.95;14.38;;;;;;;17.71;79.25;100562.94;5032247;28;20107;-87
2022/08/16 05:09:07;;;;;;;22.75;14.57;;;;;;;17.71;80.42;100563.81;5017763;28;20048;-88
2022/08/16 05:11:33;;;;;;;24.40;16.45;;;;;;;17.78;80.10;100567.88;5035877;28;20662;-88
2022/08/16 05:14:01;;;;;;;22.63;16.90;;;;;;;17.83;79.87;100570.31;5037015;28;20032;-88
2022/08/16 05:16:29;;;;;;;19.55;16.15;;;;;;;17.84;79.98;100572.91;5011608;28;20063;-88
2022/08/16 05:19:03;;;;;;;24.10;16.75;;;;;;;17.87;80.03;100571.88;5033054;28;20052;-89
2022/08/16 05:21:34;;;;;;;20.70;16.80;;;;;;;17.89;80.09;100580.69;5027893;28;20052;-89
2022/08/16 05:24:00;;;;;;;24.42;16.33;;;;;;;17.95;80.06;100585.72;5031600;28;20388;-90
2022/08/16 05:26:30;;;;;;;24.30;16.55;;;;;;;18.04;78.99;100574.44;5031537;28;20112;-89
2022/08/16 05:28:57;;;;;;;21.75;16.23;;;;;;;18.11;78.79;100587.50;5024147;28;20041;-90
2022/08/16 05:31:25;;;;;;;17.80;15.23;;;;;;;18.14;78.96;100587.31;5010373;28;20038;-89
2022/08/16 05:33:50;;;;;;;23.95;17.00;;;;;;;18.15;80.10;100586.34;5023981;28;20521;-90
2022/08/16 05:36:16;;;;;;;24.02;17.55;;;;;;;18.17;80.14;100589.81;5017284;28;20069;-89
2022/08/16 05:38:47;;;;;;;20.55;17.60;;;;;;;18.18;80.31;100587.06;5017924;28;20064;-89
2022/08/16 05:41:14;;;;;;;23.48;16.95;;;;;;;18.23;79.62;100592.16;5015332;28;20041;-90
2022/08/16 05:43:41;;;;;;;23.25;16.23;;;;;;;18.26;78.78;100590.16;4990012;28;20025;-90
2022/08/16 05:46:07;;;;;;;27.58;17.17;;;;;;;18.31;79.37;100594.41;5001498;28;20404;-90
2022/08/16 05:48:34;;;;;;;24.42;17.65;;;;;;;18.34;79.42;100591.53;5032761;28;20026;-89
2022/08/16 05:51:04;;;;;;;21.80;17.85;;;;;;;18.38;80.02;100593.09;5014166;28;20044;-90
2022/08/16 05:53:30;;;;;;;25.27;16.88;;;;;;;18.43;79.42;100599.91;5004823;28;20037;-89
2022/08/16 05:56:08;;;;;;;26.90;16.77;;;;;;;18.51;79.45;100596.78;5033437;28;20029;-89
2022/08/16 05:58:37;;;;;;;20.85;16.85;;;;;;;18.56;78.69;100605.41;4998293;28;20030;-89
2022/08/16 06:01:04;;;;;;;25.63;16.52;;;;;;;18.57;79.30;100603.56;5011109;28;20449;-89
2022/08/16 06:03:33;;;;;;;23.25;16.58;;;;;;;18.65;78.49;100598.66;5017179;28;20550;-89
2022/08/16 06:06:00;;;;;;;22.17;16.42;;;;;;;18.73;78.07;100604.41;5022303;28;20037;-89
2022/08/16 06:08:26;;;;;;;19.40;15.60;;;;;;;18.81;77.95;100602.16;5025358;28;20025;-89
2022/08/16 06:10:53;;;;;;;19.90;15.85;;;;;;;18.86;77.62;100604.56;5025785;28;20025;-89
2022/08/16 06:13:20;;;;;;;19.35;15.50;;;;;;;18.96;77.18;100611.09;5018119;28;20041;-89
2022/08/16 06:15:45;;;;;;;21.83;15.90;;;;;;;19.01;76.55;100608.13;5033792;28;20029;-89
2022/08/16 06:18:12;;;;;;;21.60;16.63;;;;;;;19.00;76.69;100601.91;5010389;28;20425;-89
2022/08/16 06:20:38;;;;;;;21.20;15.75;;;;;;;19.12;76.34;100624.47;4998710;28;20042;-89
2022/08/16 06:23:14;;;;;;;24.63;16.27;;;;;;;19.18;76.08;100615.16;5018272;28;20041;-88
2022/08/16 06:25:53;;;;;;;23.13;15.98;;;;;;;19.21;76.04;100609.59;5033271;28;20037;-89
2022/08/16 06:28:19;;;;;;;22.67;15.00;;;;;;;19.34;75.12;100621.34;5033460;28;20026;-89
2022/08/16 06:30:46;;;;;;;21.35;15.15;;;;;;;19.41;74.91;100625.38;5007367;28;20426;-89
2022/08/16 06:33:16;;;;;;;25.00;17.00;;;;;;;19.48;74.98;100625.81;5016977;28;20053;-90
2022/08/16 06:35:42;;;;;;;19.10;15.65;;;;;;;19.53;75.05;100632.66;5016935;28;20468;-87
2022/08/16 06:38:09;;;;;;;22.55;16.05;;;;;;;19.62;75.31;100635.72;5007747;28;20110;-88
2022/08/16 06:40:34;;;;;;;22.85;16.58;;;;;;;19.67;74.95;100626.44;5027701;28;20539;-88
2022/08/16 06:43:00;;;;;;;20.02;16.13;;;;;;;19.75;74.44;100620.56;5025025;28;20029;-88
2022/08/16 06:45:36;;;;;;;24.20;15.60;;;;;;;19.82;73.82;100623.72;5024206;28;20022;-88
2022/08/16 06:48:06;;;;;;;22.92;16.08;;;;;;;19.84;72.79;100621.81;5022503;28;20068;-87
2022/08/16 06:50:32;;;;;;;21.38;16.02;;;;;;;19.89;72.51;100614.31;5019607;28;20029;-88
2022/08/16 06:53:02;;;;;;;23.92;16.35;;;;;;;19.95;72.58;100617.50;5015919;28;20362;-88
2022/08/16 06:55:29;;;;;;;25.70;16.35;;;;;;;20.03;72.86;100626.84;5009391;28;20033;-89
2022/08/16 06:57:56;;;;;;;22.38;15.85;;;;;;;20.11;72.54;100629.94;5014724;28;20236;-87
2022/08/16 07:00:23;;;;;;;25.98;16.00;;;;;;;20.15;71.47;100631.44;5027782;28;20030;-87
2022/08/16 07:02:57;;;;;;;23.95;15.48;;;;;;;20.19;71.38;100620.38;5017260;28;20022;-87
2022/08/16 07:05:22;;;;;;;22.45;16.42;;;;;;;20.31;71.95;100632.16;5000347;28;20040;-91
2022/08/16 07:08:03;;;;;;;20.95;15.80;;;;;;;20.36;71.31;100630.03;5018859;28;20373;-90
2022/08/16 07:10:30;;;;;;;24.27;16.42;;;;;;;20.39;71.05;100624.44;5030397;28;20070;-89
2022/08/16 07:12:56;;;;;;;26.48;16.45;;;;;;;20.51;71.04;100638.06;5016213;28;20041;-89
2022/08/16 07:15:23;;;;;;;21.45;17.13;;;;;;;20.58;71.01;100634.88;5016027;28;20044;-88
2022/08/16 07:17:48;;;;;;;22.58;17.55;;;;;;;20.67;70.78;100644.16;5031924;28;20088;-90
2022/08/16 07:20:15;;;;;;;26.05;17.20;;;;;;;20.73;70.33;100650.97;5031962;28;20786;-89
2022/08/16 07:22:48;;;;;;;20.58;17.33;;;;;;;20.75;70.36;100639.13;5007615;28;20481;-89
2022/08/16 07:25:19;;;;;;;26.98;17.67;;;;;;;20.91;69.52;100646.16;5013055;28;20104;-88
2022/08/16 07:27:45;;;;;;;25.63;18.58;;;;;;;20.94;69.31;100654.88;5024148;28;20478;-89
2022/08/16 07:30:16;;;;;;;21.35;15.77;;;;;;;21.06;68.87;100650.47;5035791;28;20094;-89
2022/08/16 07:32:41;;;;;;;20.38;16.17;;;;;;;21.12;68.95;100642.00;5020300;28;20050;-88
2022/08/16 07:35:08;;;;;;;23.08;16.42;;;;;;;21.23;68.64;100660.94;5030489;28;20044;-89
2022/08/16 07:37:33;;;;;;;23.42;17.45;;;;;;;21.29;67.56;100648.03;5042200;28;20061;-88
2022/08/16 07:40:11;;;;;;;24.77;16.67;;;;;;;21.39;67.37;100659.91;5021097;28;20032;-88
2022/08/16 07:42:41;;;;;;;23.00;16.15;;;;;;;21.49;67.19;100661.00;5043416;28;20026;-89
2022/08/16 07:45:08;;;;;;;23.13;15.85;;;;;;;21.62;66.39;100666.38;5033659;28;20040;-88
2022/08/16 07:47:34;;;;;;;22.55;15.95;;;;;;;21.73;66.16;100662.91;5044127;28;20029;-89
2022/08/16 07:50:00;;;;;;;19.70;14.30;;;;;;;21.83;65.99;100661.28;5031818;28;20030;-90
2022/08/16 07:52:29;;;;;;;18.25;14.50;;;;;;;21.98;65.80;100657.47;5031820;28;20413;-90
2022/08/16 07:54:54;;;;;;;23.15;15.82;;;;;;;22.06;64.82;100671.28;5044680;28;20045;-88
2022/08/16 07:57:22;;;;;;;23.25;14.38;;;;;;;21.99;65.14;100652.97;5015829;28;20025;-90
2022/08/16 07:59:47;;;;;;;19.75;13.75;;;;;;;22.13;64.97;100663.59;4996191;28;20030;-89
2022/08/16 08:02:15;;;;;;;23.38;13.88;;;;;;;22.15;63.96;100667.03;5026503;28;20413;-89
2022/08/16 08:04:43;;;;;;;18.75;12.77;;;;;;;22.23;63.40;100661.09;5005031;28;20110;-88
2022/08/16 08:07:08;;;;;;;18.33;11.75;;;;;;;22.39;63.40;100658.16;5014029;28;20119;-90
2022/08/16 08:09:34;;;;;;;16.73;11.77;;;;;;;22.54;63.47;100657.88;5022501;28;20028;-89
2022/08/16 08:11:59;;;;;;;18.67;12.43;;;;;;;22.70;62.59;100662.09;5038327;28;20124;-91
2022/08/16 08:14:25;;;;;;;23.13;11.57;;;;;;;22.86;62.25;100672.63;5014701;28;20036;-87
2022/08/16 08:16:52;;;;;;;20.98;11.40;;;;;;;22.94;61.05;100665.63;5042926;28;20136;-90
2022/08/16 08:19:28;;;;;;;13.82;10.23;;;;;;;23.08;60.57;100675.41;5017508;28;20035;-89
2022/08/16 08:21:54;;;;;;;20.60;12.10;;;;;;;23.12;59.49;100668.81;5026010;28;20123;-90
2022/08/16 08:24:23;;;;;;;18.73;10.73;;;;;;;23.20;59.51;100684.44;5033807;28;20029;-89
2022/08/16 08:26:50;;;;;;;15.73;10.52;;;;;;;23.25;60.10;100674.13;5008181;28;20044;-89
2022/08/16 08:29:17;;;;;;;13.82;10.35;;;;;;;23.35;59.07;100682.38;5005105;28;20022;-90
2022/08/16 08:31:43;;;;;;;15.20;9.38;;;;;;;23.49;59.47;100683.97;5031321;28;20021;-88
2022/08/16 08:34:09;;;;;;;21.13;9.82;;;;;;;23.65;58.42;100678.25;5011885;28;20044;-91
2022/08/16 08:36:37;;;;;;;13.57;9.10;;;;;;;23.76;58.49;100681.84;4990951;28;20032;-91
2022/08/16 08:39:17;;;;;;;18.20;9.32;;;;;;;23.89;56.51;100678.16;5022462;28;20033;-90
2022/08/16 08:41:43;;;;;;;17.42;10.38;;;;;;;23.86;56.94;100670.28;5051490;28;20025;-90
2022/08/16 08:44:10;;;;;;;15.85;9.68;;;;;;;23.91;56.53;100681.56;5010959;28;20033;-89
2022/08/16 08:46:36;;;;;;;15.98;10.40;;;;;;;23.97;56.12;100683.81;5043458;28;20029;-90
2022/08/16 08:49:04;;;;;;;13.93;9.35;;;;;;;23.99;56.21;100679.13;5025170;28;20175;-90
2022/08/16 08:51:37;;;;;;;13.77;9.13;;;;;;;24.06;56.47;100684.88;5018063;28;20030;-90
2022/08/16 08:54:08;;;;;;;19.17;8.68;;;;;;;24.28;55.98;100689.41;5031024;28;20040;-90
2022/08/16 08:56:37;;;;;;;15.38;8.70;;;;;;;24.37;55.47;100681.41;4996905;28;20103;-91
2022/08/16 08:59:09;;;;;;;14.07;8.88;;;;;;;24.55;54.66;100689.00;5015422;28;20036;-90
2022/08/16 09:01:39;;;;;;;12.88;8.70;;;;;;;24.60;54.11;100690.34;4997229;28;20045;-90
2022/08/16 09:04:06;;;;;;;11.80;8.15;;;;;;;24.67;53.58;100691.56;5030945;28;20037;-91
2022/08/16 09:06:34;;;;;;;13.57;7.70;;;;;;;24.77;54.40;100699.75;5010950;28;20038;-90
2022/08/16 09:08:59;;;;;;;11.52;7.20;;;;;;;24.86;53.03;100692.72;5029945;28;20040;-90
2022/08/16 09:11:27;;;;;;;16.05;7.95;;;;;;;24.91;52.86;100684.22;5041871;28;20543;-90
2022/08/16 09:13:53;;;;;;;13.25;7.93;;;;;;;24.99;52.16;100687.13;5001441;28;20492;-89
2022/08/16 09:16:19;;;;;;;10.80;6.88;;;;;;;25.10;52.74;100695.22;5025292;28;20359;-89
2022/08/16 09:18:45;;;;;;;11.55;7.35;;;;;;;25.17;52.29;100690.16;5029809;28;20087;-91
2022/08/16 09:21:14;;;;;;;13.50;7.38;;;;;;;25.34;52.00;100694.13;5031575;28;20485;-90
2022/08/16 09:23:40;;;;;;;13.63;7.32;;;;;;;25.48;52.09;100693.78;5037934;28;20041;-90
2022/08/16 09:26:10;;;;;;;11.52;7.05;;;;;;;25.63;51.19;100703.28;5029819;28;20029;-91
2022/08/16 09:28:37;;;;;;;11.05;6.55;;;;;;;25.62;49.97;100695.28;5031626;28;20068;-90
2022/08/16 09:31:15;;;;;;;16.50;6.65;;;;;;;25.71;49.91;100700.75;5033183;28;20438;-90
2022/08/16 09:33:42;;;;;;;13.85;6.03;;;;;;;25.88;49.59;100701.16;5002346;28;20050;-91
2022/08/16 09:36:08;;;;;;;11.10;6.03;;;;;;;26.01;48.68;100704.50;5014744;28;20088;-90
2022/08/16 09:38:34;;;;;;;11.00;5.70;;;;;;;26.07;48.33;100703.09;5034650;28;20072;-91
2022/08/16 09:41:03;;;;;;;16.70;5.90;;;;;;;26.14;47.77;100707.84;5015783;28;20569;-90
2022/08/16 09:43:30;;;;;;;15.80;6.10;;;;;;;26.30;48.24;100707.31;5006237;28;20041;-92
2022/08/16 09:45:55;;;;;;;14.43;6.72;;;;;;;26.46;46.52;100709.50;5001071;28;20095;-92
2022/08/16 09:48:21;;;;;;;17.15;7.00;;;;;;;26.48;46.43;100704.75;5027233;28;20033;-89
2022/08/16 09:50:46;;;;;;;13.63;6.05;;;;;;;26.59;46.86;100709.28;5007523;28;20038;-90
2022/08/16 09:53:16;;;;;;;11.10;4.68;;;;;;;26.67;46.75;100706.69;5014473;28;20048;-89
2022/08/16 09:55:45;;;;;;;10.82;5.38;;;;;;;26.79;46.22;100707.44;5044621;28;20079;-91
2022/08/16 09:58:11;;;;;;;19.27;5.28;;;;;;;26.84;45.14;100701.59;5014501;28;20037;-88
2022/08/16 10:00:36;;;;;;;15.88;5.72;;;;;;;26.88;45.13;100693.00;5021949;28;20041;-92
2022/08/16 10:03:04;;;;;;;8.32;5.38;;;;;;;26.98;44.96;100693.84;5017887;28;20425;-92
2022/08/16 10:05:31;;;;;;;12.02;5.15;;;;;;;27.19;44.56;100703.75;5023888;28;20033;-91
2022/08/16 10:07:58;;;;;;;8.00;5.13;;;;;;;27.24;43.63;100706.88;5051112;28;20029;-90
2022/08/16 10:10:24;;;;;;;10.45;4.93;;;;;;;27.41;43.65;100703.41;5034599;28;20064;-91
2022/08/16 10:15:34;;;;;;;10.57;5.30;;;;;;;27.63;43.26;100713.09;5028340;28;20179;-92
2022/08/16 10:18:06;;;;;;;12.88;4.38;;;;;;;27.62;42.55;100703.25;5014409;28;20033;-90
2022/08/16 10:20:35;;;;;;;9.60;4.40;;;;;;;27.83;42.92;100713.06;4999349;28;20405;-92
2022/08/16 10:23:06;;;;;;;12.88;4.45;;;;;;;27.93;41.63;100710.31;5005592;28;20521;-91
2022/08/16 10:25:32;;;;;;;15.10;4.75;;;;;;;28.09;41.02;100696.91;5001078;28;20049;-89
2022/08/16 10:27:59;;;;;;;8.75;4.57;;;;;;;28.16;41.08;100703.47;5015789;28;20032;-92
2022/08/16 10:30:24;;;;;;;9.15;4.25;;;;;;;28.34;39.81;100714.44;5007096;28;20380;-88
2022/08/16 10:32:50;;;;;;;9.95;4.10;;;;;;;28.39;39.41;100716.66;5030397;28;20058;-92
2022/08/16 10:35:15;;;;;;;8.30;3.97;;;;;;;28.48;39.40;100708.47;5012901;28;20038;-89
2022/08/16 10:37:41;;;;;;;11.02;4.20;;;;;;;28.55;39.67;100707.88;5014348;28;20030;-92
2022/08/16 10:40:09;;;;;;;9.25;3.63;;;;;;;28.57;38.41;100723.06;5014858;28;20037;-89
2022/08/16 10:42:34;;;;;;;6.57;3.70;;;;;;;28.42;39.27;100708.22;5040154;28;20093;-90
2022/08/16 10:45:01;;;;;;;8.90;4.25;;;;;;;28.19;38.95;100722.25;5030780;28;20029;-90
2022/08/16 10:47:28;;;;;;;7.55;3.90;;;;;;;28.28;39.87;100721.31;5016841;28;20060;-90
2022/08/16 10:49:54;;;;;;;9.88;3.88;;;;;;;28.51;39.47;100705.47;5034179;28;20033;-90
2022/08/16 10:52:21;;;;;;;12.55;4.55;;;;;;;28.63;39.26;100714.25;4998065;28;20038;-91
2022/08/16 10:54:47;;;;;;;9.63;4.20;;;;;;;28.83;39.86;100716.84;5029091;28;20030;-90
2022/08/16 10:57:13;;;;;;;11.80;4.97;;;;;;;28.86;37.89;100706.50;5016801;28;20033;-91
2022/08/16 10:59:40;;;;;;;12.70;4.03;;;;;;;29.20;38.47;100719.44;5033716;28;20033;-91
2022/08/16 11:02:07;;;;;;;16.20;4.28;;;;;;;29.42;38.09;100718.06;4999789;28;20071;-91
2022/08/16 11:04:33;;;;;;;7.05;3.88;;;;;;;29.42;36.93;100718.06;5017085;28;20481;-91
2022/08/16 11:06:59;;;;;;;8.75;3.72;;;;;;;29.43;36.03;100719.81;5000285;28;20084;-88
2022/08/16 11:09:24;;;;;;;8.45;4.13;;;;;;;29.35;36.01;100722.44;5031586;28;20036;-92
2022/08/16 11:11:50;;;;;;;11.38;3.95;;;;;;;29.39;36.14;100723.84;5024514;28;20404;-92
2022/08/16 11:14:17;;;;;;;8.40;4.00;;;;;;;29.53;36.75;100725.16;4999231;28;20127;-90
2022/08/16 11:16:43;;;;;;;11.98;4.30;;;;;;;29.66;35.47;100727.50;4999833;28;20124;-91
2022/08/16 11:19:09;;;;;;;9.35;3.95;;;;;;;29.76;35.11;100729.06;5014126;28;20105;-90